TAM8148 SBGR-LPPT
Flight info
| Callsign | TAM8148 |
|---|---|
| Flight time | N/A |
| Altitude | 33000 |
| Route | NUXEL UZ23 ILPIR UZ72 EDNES UN866 ARTIG/N0490F350 UN866 DEKON/N0485F340 UN866 NELTO/N0485F360 UN866 AMDOL/N0481F350 UN866 TENPA N866 YORGI/N0478F370 N866 GOMER/N0469F360 N866 KONBA UN866 BEXAL DCT LUVUP |
| Aircraft | B77W/H-SDE1E2E3FGHIJ2J3J4J5M1RWXY/LB1D1 |
Departure
| Time | N/A |
|---|---|
| Airport | São Paulo/Guarulhos–Governor André Franco Montoro International Airport (SBGR) |
Arrival
| Time | 2026-05-08 01:20 |
|---|---|
| Airport | Lisbon Humberto Delgado Airport (LPPT) |
| Time | Latitude | Longitude | Altitude | Speed | Heading |
|---|---|---|---|---|---|
| 2026-05-08 00:54 | 37.90781 | -9.75197 | 31117 ft | 436 kts | 69° |
| 2026-05-08 00:55 | 37.92198 | -9.71837 | 30325 ft | 430 kts | 69° |
| 2026-05-08 00:55 | 37.93593 | -9.68521 | 29449 ft | 424 kts | 69° |
| 2026-05-08 00:55 | 37.94968 | -9.65246 | 28503 ft | 418 kts | 69° |
| 2026-05-08 00:55 | 37.96325 | -9.62013 | 27625 ft | 413 kts | 69° |
| 2026-05-08 00:56 | 37.97665 | -9.58818 | 26773 ft | 407 kts | 68° |
| 2026-05-08 00:56 | 37.98985 | -9.55667 | 25920 ft | 403 kts | 68° |
| 2026-05-08 00:56 | 38.00292 | -9.52548 | 25114 ft | 398 kts | 68° |
| 2026-05-08 00:56 | 38.01567 | -9.49500 | 24311 ft | 394 kts | 68° |
| 2026-05-08 00:57 | 38.02846 | -9.46439 | 23544 ft | 391 kts | 68° |
| 2026-05-08 00:57 | 38.04111 | -9.43409 | 22652 ft | 387 kts | 67° |
| 2026-05-08 00:57 | 38.05362 | -9.40413 | 21818 ft | 382 kts | 67° |
| 2026-05-08 00:57 | 38.06599 | -9.37446 | 21007 ft | 377 kts | 67° |
| 2026-05-08 00:58 | 38.07818 | -9.34520 | 20220 ft | 373 kts | 67° |
| 2026-05-08 00:58 | 38.09023 | -9.31625 | 19447 ft | 369 kts | 67° |
| 2026-05-08 00:58 | 38.10214 | -9.28760 | 18700 ft | 365 kts | 67° |
| 2026-05-08 00:58 | 38.11392 | -9.25923 | 17927 ft | 361 kts | 67° |
| 2026-05-08 00:59 | 38.12556 | -9.23120 | 17145 ft | 356 kts | 67° |
| 2026-05-08 00:59 | 38.13699 | -9.20365 | 16427 ft | 349 kts | 67° |
| 2026-05-08 00:59 | 38.14822 | -9.17656 | 15730 ft | 344 kts | 68° |
| 2026-05-08 00:59 | 38.15926 | -9.14991 | 15042 ft | 338 kts | 68° |
| 2026-05-08 01:00 | 38.16997 | -9.12404 | 14373 ft | 333 kts | 68° |
| 2026-05-08 01:00 | 38.18105 | -9.09845 | 13706 ft | 330 kts | 62° |
| 2026-05-08 01:00 | 38.19522 | -9.07542 | 12945 ft | 330 kts | 53° |
| 2026-05-08 01:00 | 38.21068 | -9.05404 | 12225 ft | 326 kts | 51° |
| 2026-05-08 01:01 | 38.22558 | -9.03372 | 11677 ft | 318 kts | 51° |
| 2026-05-08 01:01 | 38.24021 | -9.01329 | 11164 ft | 308 kts | 52° |
| 2026-05-08 01:01 | 38.25421 | -8.99327 | 10713 ft | 298 kts | 52° |
| 2026-05-08 01:01 | 38.26774 | -8.97369 | 10225 ft | 291 kts | 52° |
| 2026-05-08 01:02 | 38.28119 | -8.95410 | 10040 ft | 297 kts | 52° |
| 2026-05-08 01:02 | 38.29517 | -8.93484 | 9933 ft | 295 kts | 42° |
| 2026-05-08 01:02 | 38.31328 | -8.92295 | 9932 ft | 296 kts | 13° |
| 2026-05-08 01:02 | 38.33384 | -8.92257 | 9942 ft | 299 kts | 345° |
| 2026-05-08 01:03 | 38.35266 | -8.93312 | 9948 ft | 295 kts | 320° |
| 2026-05-08 01:03 | 38.36782 | -8.95054 | 9945 ft | 293 kts | 312° |
| 2026-05-08 01:03 | 38.38183 | -8.96877 | 9921 ft | 280 kts | 303° |
| 2026-05-08 01:03 | 38.38964 | -8.99020 | 9890 ft | 258 kts | 275° |
| 2026-05-08 01:04 | 38.38999 | -9.01163 | 9586 ft | 246 kts | 261° |
| 2026-05-08 01:04 | 38.38699 | -9.03323 | 8991 ft | 236 kts | 239° |
| 2026-05-08 01:04 | 38.37770 | -9.05015 | 8355 ft | 233 kts | 230° |
| 2026-05-08 01:04 | 38.36805 | -9.06680 | 7768 ft | 234 kts | 232° |
| 2026-05-08 01:05 | 38.35881 | -9.08381 | 7233 ft | 232 kts | 234° |
| 2026-05-08 01:05 | 38.34967 | -9.10100 | 7054 ft | 240 kts | 236° |
| 2026-05-08 01:05 | 38.34335 | -9.12059 | 6950 ft | 238 kts | 256° |
| 2026-05-08 01:05 | 38.34036 | -9.14128 | 6937 ft | 236 kts | 258° |
| 2026-05-08 01:06 | 38.33760 | -9.16181 | 6932 ft | 234 kts | 258° |
| 2026-05-08 01:06 | 38.33468 | -9.18222 | 6937 ft | 235 kts | 257° |
| 2026-05-08 01:06 | 38.33163 | -9.20274 | 6941 ft | 236 kts | 257° |
| 2026-05-08 01:06 | 38.32851 | -9.22335 | 6942 ft | 237 kts | 257° |
| 2026-05-08 01:07 | 38.32733 | -9.24408 | 6919 ft | 235 kts | 276° |
| 2026-05-08 01:07 | 38.33069 | -9.26453 | 6940 ft | 238 kts | 280° |
| 2026-05-08 01:07 | 38.33422 | -9.28520 | 6945 ft | 240 kts | 279° |
| 2026-05-08 01:07 | 38.33762 | -9.30604 | 6947 ft | 241 kts | 279° |
| 2026-05-08 01:08 | 38.34100 | -9.32707 | 6945 ft | 243 kts | 279° |
| 2026-05-08 01:08 | 38.34437 | -9.34820 | 6939 ft | 244 kts | 279° |
| 2026-05-08 01:08 | 38.34853 | -9.36868 | 6915 ft | 241 kts | 294° |
| 2026-05-08 01:08 | 38.35761 | -9.38644 | 6947 ft | 241 kts | 303° |
| 2026-05-08 01:09 | 38.36727 | -9.40415 | 6949 ft | 246 kts | 302° |
| 2026-05-08 01:09 | 38.37686 | -9.42219 | 6941 ft | 245 kts | 302° |
| 2026-05-08 01:09 | 38.38649 | -9.44039 | 6922 ft | 244 kts | 301° |
| 2026-05-08 01:09 | 38.39578 | -9.45800 | 6932 ft | 241 kts | 301° |
| 2026-05-08 01:10 | 38.40537 | -9.47533 | 6909 ft | 238 kts | 311° |
| 2026-05-08 01:10 | 38.41846 | -9.48873 | 6952 ft | 248 kts | 324° |
| 2026-05-08 01:10 | 38.43315 | -9.50080 | 6939 ft | 252 kts | 325° |
| 2026-05-08 01:10 | 38.44779 | -9.51276 | 6930 ft | 248 kts | 327° |
| 2026-05-08 01:11 | 38.46364 | -9.52004 | 6958 ft | 245 kts | 354° |
| 2026-05-08 01:11 | 38.48057 | -9.51629 | 6937 ft | 253 kts | 25° |
| 2026-05-08 01:11 | 38.49423 | -9.50219 | 6759 ft | 256 kts | 57° |
| 2026-05-08 01:11 | 38.50030 | -9.48137 | 6587 ft | 248 kts | 81° |
| 2026-05-08 01:12 | 38.50288 | -9.45964 | 6415 ft | 247 kts | 83° |
| 2026-05-08 01:12 | 38.50556 | -9.43795 | 6158 ft | 247 kts | 76° |
| 2026-05-08 01:12 | 38.51246 | -9.41787 | 5786 ft | 244 kts | 61° |
| 2026-05-08 01:12 | 38.51948 | -9.40252 | 5589 ft | 234 kts | 59° |
| 2026-05-08 01:13 | 38.52754 | -9.38522 | 5382 ft | 219 kts | 59° |
| 2026-05-08 01:13 | 38.53254 | -9.37432 | 5254 ft | 210 kts | 60° |
| 2026-05-08 01:13 | 38.53960 | -9.35868 | 5096 ft | 201 kts | 60° |
| 2026-05-08 01:13 | 38.54654 | -9.34307 | 4968 ft | 202 kts | 60° |
| 2026-05-08 01:14 | 38.55337 | -9.32748 | 4807 ft | 201 kts | 60° |
| 2026-05-08 01:14 | 38.56013 | -9.31190 | 4664 ft | 200 kts | 60° |
| 2026-05-08 01:14 | 38.56684 | -9.29635 | 4495 ft | 199 kts | 61° |
| 2026-05-08 01:14 | 38.57344 | -9.28099 | 4399 ft | 196 kts | 61° |
| 2026-05-08 01:15 | 38.58000 | -9.26567 | 4258 ft | 197 kts | 61° |
| 2026-05-08 01:15 | 38.58659 | -9.25030 | 4122 ft | 197 kts | 61° |
| 2026-05-08 01:15 | 38.59489 | -9.23668 | 4019 ft | 195 kts | 34° |
| 2026-05-08 01:15 | 38.60696 | -9.22918 | 4020 ft | 194 kts | 21° |
| 2026-05-08 01:16 | 38.61940 | -9.22251 | 4021 ft | 192 kts | 21° |
| 2026-05-08 01:16 | 38.63144 | -9.21602 | 4012 ft | 185 kts | 21° |
| 2026-05-08 01:16 | 38.64318 | -9.20974 | 3848 ft | 181 kts | 21° |
| 2026-05-08 01:16 | 38.65473 | -9.20359 | 3483 ft | 180 kts | 21° |
| 2026-05-08 01:17 | 38.66622 | -9.19746 | 3186 ft | 176 kts | 21° |
| 2026-05-08 01:17 | 38.67710 | -9.19160 | 2888 ft | 164 kts | 21° |
| 2026-05-08 01:17 | 38.68727 | -9.18618 | 2435 ft | 157 kts | 21° |
| 2026-05-08 01:17 | 38.69711 | -9.18103 | 1986 ft | 147 kts | 20° |
| 2026-05-08 01:18 | 38.70656 | -9.17601 | 1703 ft | 147 kts | 22° |
| 2026-05-08 01:18 | 38.71593 | -9.17086 | 1445 ft | 146 kts | 22° |
| 2026-05-08 01:18 | 38.72524 | -9.16594 | 1237 ft | 146 kts | 21° |
| 2026-05-08 01:18 | 38.73463 | -9.16108 | 1079 ft | 147 kts | 22° |
| 2026-05-08 01:19 | 38.74411 | -9.15601 | 883 ft | 147 kts | 22° |
| 2026-05-08 01:19 | 38.75344 | -9.15083 | 658 ft | 144 kts | 22° |
| 2026-05-08 01:19 | 38.76268 | -9.14589 | 458 ft | 144 kts | 22° |
| 2026-05-08 01:19 | 38.77181 | -9.14098 | 369 ft | 135 kts | 22° |
| 2026-05-08 01:20 | 38.77939 | -9.13697 | 367 ft | 94 kts | 23° |
| 2026-05-08 01:20 | 38.78335 | -9.13401 | 362 ft | 40 kts | 50° |
| 2026-05-08 01:20 | 38.78306 | -9.13280 | 362 ft | 17 kts | 186° |
| 2026-05-08 01:20 | 38.78198 | -9.13329 | 361 ft | 17 kts | 202° |
| 2026-05-08 01:21 | 38.78092 | -9.13385 | 362 ft | 17 kts | 202° |
| 2026-05-08 01:21 | 38.77983 | -9.13411 | 362 ft | 17 kts | 163° |
| 2026-05-08 01:21 | 38.77871 | -9.13375 | 357 ft | 17 kts | 169° |
| 2026-05-08 01:21 | 38.77757 | -9.13347 | 361 ft | 17 kts | 169° |
| 2026-05-08 01:22 | 38.77644 | -9.13317 | 364 ft | 17 kts | 169° |
| 2026-05-08 01:22 | 38.77529 | -9.13306 | 363 ft | 17 kts | 173° |
| 2026-05-08 01:22 | 38.77469 | -9.13266 | 365 ft | 5 kts | 104° |
| 2026-05-08 01:22 | 38.77479 | -9.13223 | 358 ft | 6 kts | 72° |
| 2026-05-08 01:23 | 38.77488 | -9.13176 | 360 ft | 0 kts | 77° |
| 2026-05-08 01:23 | 38.77488 | -9.13174 | 360 ft | 0 kts | 77° |